createdAt,value
2019-01-29T00:00:48.873Z,5.93
2019-01-29T00:05:50.935Z,6.60
2019-01-29T00:10:53.225Z,6.80
2019-01-29T00:15:55.346Z,6.17
2019-01-29T00:20:57.297Z,6.60
2019-01-29T00:25:59.517Z,5.63
2019-01-29T00:31:01.740Z,7.30
2019-01-29T00:36:03.771Z,5.70
2019-01-29T00:41:05.696Z,7.17
2019-01-29T00:46:07.832Z,6.67
2019-01-29T00:51:09.885Z,8.13
2019-01-29T00:56:11.900Z,7.07
2019-01-29T01:01:14.023Z,6.93
2019-01-29T01:06:17.139Z,7.67
2019-01-29T01:11:19.109Z,6.90
2019-01-29T01:16:22.170Z,8.70
2019-01-29T01:21:24.134Z,10.20
2019-01-29T01:26:26.036Z,10.47
2019-01-29T01:31:28.276Z,8.93
2019-01-29T01:36:30.208Z,10.70
2019-01-29T01:41:32.242Z,10.53
2019-01-29T01:46:34.235Z,11.57
2019-01-29T01:51:36.232Z,9.40
2019-01-29T01:56:39.229Z,9.63
2019-01-29T02:01:41.370Z,8.20
2019-01-29T02:06:43.297Z,9.93
2019-01-29T02:11:45.306Z,8.90
2019-01-29T02:16:55.376Z,6.80
2019-01-29T02:21:57.362Z,10.17
2019-01-29T02:26:59.417Z,8.93
2019-01-29T02:32:01.464Z,10.57
2019-01-29T02:37:03.641Z,6.63
2019-01-29T02:42:05.782Z,7.13
2019-01-29T02:47:07.857Z,6.53
2019-01-29T02:52:10.236Z,9.80
2019-01-29T02:57:12.217Z,10.83
2019-01-29T03:02:14.454Z,8.50
2019-01-29T03:07:16.601Z,6.20
2019-01-29T03:12:18.554Z,7.07
2019-01-29T03:17:20.509Z,6.67
2019-01-29T03:22:22.475Z,4.80
2019-01-29T03:27:24.362Z,8.90
2019-01-29T03:32:26.334Z,9.27
2019-01-29T03:37:28.754Z,7.67
2019-01-29T03:42:30.789Z,5.60
2019-01-29T03:47:32.750Z,11.80
2019-01-29T03:52:34.750Z,7.40
2019-01-29T03:57:36.764Z,10.37
2019-01-29T04:02:38.701Z,6.87
2019-01-29T04:07:40.735Z,7.83
2019-01-29T04:12:43.385Z,4.63
2019-01-29T04:17:45.540Z,4.47
2019-01-29T04:22:47.865Z,4.23
2019-01-29T04:27:49.998Z,7.23
2019-01-29T04:32:52.045Z,4.53
2019-01-29T04:37:53.939Z,4.83
2019-01-29T04:42:56.002Z,6.20
2019-01-29T04:47:58.049Z,6.33
2019-01-29T04:52:59.997Z,4.20
2019-01-29T04:58:02.033Z,8.10
2019-01-29T05:03:04.225Z,7.00
2019-01-29T05:08:06.203Z,5.40
2019-01-29T05:13:08.465Z,4.73
2019-01-29T05:18:10.539Z,9.47
2019-01-29T05:23:12.499Z,8.87
2019-01-29T05:28:14.425Z,10.07
2019-01-29T05:33:16.402Z,6.33
2019-01-29T05:38:18.298Z,9.83
2019-01-29T05:43:20.335Z,9.27
2019-01-29T05:48:22.239Z,8.33
2019-01-29T05:53:24.193Z,9.50
2019-01-29T05:58:27.204Z,8.47
2019-01-29T06:03:29.136Z,9.40
2019-01-29T06:08:31.062Z,9.17
2019-01-29T06:13:33.141Z,12.10
2019-01-29T06:18:35.154Z,10.30
2019-01-29T06:23:37.118Z,10.10
2019-01-29T06:28:39.046Z,11.47
2019-01-29T06:33:40.977Z,9.27
2019-01-29T06:38:42.889Z,14.67
2019-01-29T06:43:45.066Z,8.93
2019-01-29T06:48:47.393Z,8.23
2019-01-29T06:53:49.657Z,12.43
2019-01-29T06:58:51.697Z,9.03
2019-01-29T07:03:53.606Z,9.93
2019-01-29T07:08:55.742Z,9.53
2019-01-29T07:13:57.744Z,10.10
2019-01-29T07:24:30.213Z,9.77
2019-01-29T07:29:32.717Z,10.87
2019-01-29T07:34:34.840Z,12.20
2019-01-29T07:39:37.301Z,11.17
2019-01-29T07:44:39.604Z,13.07
2019-01-29T07:49:41.873Z,10.50
2019-01-29T07:54:51.099Z,10.37
2019-01-29T08:00:09.457Z,8.27
2019-01-29T08:05:29.777Z,8.93
2019-01-29T08:10:50.389Z,12.30
2019-01-29T08:16:11.984Z,9.80
2019-01-29T08:21:32.548Z,9.00
2019-01-29T08:26:53.153Z,10.30
2019-01-29T08:32:13.952Z,11.93
2019-01-29T08:37:34.759Z,11.60
2019-01-29T08:42:55.446Z,12.17
2019-01-29T08:48:16.011Z,11.63
2019-01-29T08:53:36.646Z,10.37
2019-01-29T08:58:57.337Z,8.60
2019-01-29T09:04:18.185Z,9.37
2019-01-29T09:09:38.462Z,8.43
2019-01-29T09:15:00.606Z,11.17
2019-01-29T09:20:21.296Z,8.43
2019-01-29T09:25:41.825Z,8.17
2019-01-29T09:31:02.575Z,11.70
2019-01-29T09:36:24.702Z,8.03
2019-01-29T09:41:45.286Z,9.83
2019-01-29T09:47:06.702Z,7.50
2019-01-29T09:52:27.988Z,7.23
2019-01-29T09:57:48.846Z,9.77
2019-01-29T10:03:10.636Z,10.23
2019-01-29T10:08:30.764Z,7.93
2019-01-29T10:13:52.745Z,9.93
2019-01-29T10:19:13.251Z,5.70
2019-01-29T10:24:33.657Z,6.30
2019-01-29T10:29:54.547Z,5.43
2019-01-29T10:35:16.642Z,5.83
2019-01-29T10:40:37.113Z,9.63
2019-01-29T10:45:57.583Z,9.13
2019-01-29T10:51:18.203Z,7.67
2019-01-29T10:56:38.938Z,10.67
2019-01-29T11:01:59.748Z,8.43
2019-01-29T11:07:20.257Z,8.53
2019-01-29T11:12:41.233Z,9.67
2019-01-29T11:18:02.683Z,7.03
2019-01-29T11:23:23.265Z,7.13
2019-01-29T11:28:43.737Z,8.87
2019-01-29T11:34:04.687Z,11.40
2019-01-29T11:39:25.255Z,8.33
2019-01-29T11:44:46.756Z,6.33
2019-01-29T11:50:08.147Z,8.80
2019-01-29T11:55:28.927Z,8.97
2019-01-29T12:00:54.329Z,10.43
2019-01-29T12:06:14.937Z,9.77
2019-01-29T12:11:35.575Z,5.47
2019-01-29T12:16:56.094Z,8.73
2019-01-29T12:22:18.184Z,7.67
2019-01-29T12:27:39.068Z,8.80
2019-01-29T12:33:00.072Z,10.73
2019-01-29T12:38:20.621Z,7.50
2019-01-29T12:43:41.313Z,8.33
2019-01-29T12:49:02.250Z,9.97
2019-01-29T12:54:22.970Z,6.60
2019-01-29T12:59:43.725Z,5.63
2019-01-29T13:05:05.038Z,9.23
2019-01-29T13:10:25.950Z,8.73
2019-01-29T13:15:46.354Z,8.37
2019-01-29T13:21:06.942Z,13.57
2019-01-29T13:26:30.178Z,8.57
2019-01-29T13:31:50.228Z,8.20
2019-01-29T13:37:11.012Z,7.83
2019-01-29T13:42:31.556Z,7.03
2019-01-29T13:47:52.657Z,7.07
2019-01-29T13:53:13.108Z,35.80
2019-01-29T13:58:34.045Z,10.70
2019-01-29T14:03:54.640Z,7.67
2019-01-29T14:09:15.504Z,10.07
2019-01-29T14:14:36.487Z,7.70
2019-01-29T14:19:56.990Z,8.00
2019-01-29T14:25:17.968Z,5.07
2019-01-29T14:30:38.656Z,5.63
2019-01-29T14:35:59.544Z,6.43
2019-01-29T14:41:21.012Z,8.50
2019-01-29T14:46:41.924Z,6.43
2019-01-29T14:52:02.237Z,9.20
2019-01-29T14:57:23.046Z,7.37
2019-01-29T15:02:43.880Z,8.07
2019-01-29T15:08:05.025Z,13.40
2019-01-29T15:13:25.689Z,9.13
2019-01-29T15:18:52.159Z,9.30
2019-01-29T15:24:12.393Z,8.50
2019-01-29T15:29:33.482Z,8.40
2019-01-29T15:34:54.629Z,11.53
2019-01-29T15:40:15.845Z,6.30
2019-01-29T15:45:37.533Z,6.53
2019-01-29T15:50:58.213Z,7.40
2019-01-29T15:56:20.779Z,7.23
2019-01-29T16:01:41.564Z,8.43
2019-01-29T16:07:02.792Z,11.83
2019-01-29T16:12:23.568Z,8.73
2019-01-29T16:17:44.332Z,10.30
2019-01-29T16:23:05.265Z,7.30
2019-01-29T16:28:26.184Z,8.77
2019-01-29T16:33:46.726Z,11.33
2019-01-29T16:39:08.342Z,15.23
2019-01-29T16:44:29.926Z,20.23
2019-01-29T16:49:50.417Z,12.37
2019-01-29T16:55:15.554Z,11.27
2019-01-29T17:00:36.694Z,9.73
2019-01-29T17:05:58.074Z,16.27
2019-01-29T17:11:18.828Z,15.40
2019-01-29T17:16:39.421Z,23.93
2019-01-29T17:22:00.273Z,12.07
2019-01-29T17:27:20.912Z,29.07
2019-01-29T17:32:41.449Z,49.53
2019-01-29T17:38:02.124Z,19.00
2019-01-29T17:43:23.543Z,14.87
2019-01-29T17:48:47.146Z,14.53
2019-01-29T17:54:08.431Z,29.30
2019-01-29T17:59:29.490Z,23.40
2019-01-29T18:04:50.939Z,21.80
2019-01-29T18:10:14.144Z,16.43
2019-01-29T18:15:35.666Z,14.87
2019-01-29T18:20:56.332Z,49.53
2019-01-29T18:26:17.311Z,35.90
2019-01-29T18:31:38.308Z,32.07
2019-01-29T18:36:59.772Z,29.57
2019-01-29T18:42:20.953Z,31.77
2019-01-29T18:47:42.700Z,34.40
2019-01-29T18:53:04.681Z,60.30
2019-01-29T18:58:26.542Z,50.87
2019-01-29T19:03:50.029Z,19.47
2019-01-29T19:09:11.967Z,17.23
2019-01-29T19:14:33.791Z,15.00
2019-01-29T19:19:55.401Z,15.03
2019-01-29T19:25:17.270Z,18.43
2019-01-29T19:30:39.317Z,13.13
2019-01-29T19:36:00.965Z,13.43
2019-01-29T19:41:25.544Z,12.47
2019-01-29T19:46:47.426Z,15.60
2019-01-29T19:52:09.964Z,11.57
2019-01-29T19:57:32.071Z,12.53
2019-01-29T20:02:53.992Z,14.50
2019-01-29T20:08:16.421Z,11.47
2019-01-29T20:13:39.329Z,16.57
2019-01-29T20:19:02.830Z,13.37
2019-01-29T20:24:24.489Z,12.33
2019-01-29T20:29:46.354Z,13.00
2019-01-29T20:35:07.710Z,11.43
2019-01-29T20:40:30.094Z,12.47
2019-01-29T20:45:51.090Z,13.77
2019-01-29T20:51:12.010Z,14.00
2019-01-29T20:56:32.533Z,12.27
2019-01-29T21:01:54.228Z,13.23
2019-01-29T21:07:14.691Z,10.50
2019-01-29T21:12:35.270Z,11.67
2019-01-29T21:17:55.858Z,12.27
2019-01-29T21:23:16.502Z,13.40
2019-01-29T21:28:37.141Z,12.43
2019-01-29T21:33:57.978Z,10.87
2019-01-29T21:39:18.730Z,13.47
2019-01-29T21:44:39.251Z,14.43
2019-01-29T21:50:11.109Z,15.07
2019-01-29T21:55:24.200Z,13.47
2019-01-29T22:00:45.812Z,14.00
2019-01-29T22:06:06.660Z,17.37
2019-01-29T22:11:27.001Z,15.80
2019-01-29T22:16:47.628Z,13.93
2019-01-29T22:22:08.395Z,15.27
2019-01-29T22:27:28.878Z,17.77
2019-01-29T22:32:49.758Z,14.10
2019-01-29T22:38:10.442Z,15.80
2019-01-29T22:43:31.255Z,15.70
2019-01-29T22:48:52.123Z,16.10
2019-01-29T22:54:12.556Z,17.27
2019-01-29T22:59:33.736Z,15.67
2019-01-29T23:04:54.615Z,17.63
2019-01-29T23:10:16.715Z,17.80
2019-01-29T23:15:36.927Z,19.53
2019-01-29T23:20:57.340Z,16.13
2019-01-29T23:26:19.525Z,19.03
2019-01-29T23:31:40.076Z,17.00
2019-01-29T23:37:00.502Z,21.37
2019-01-29T23:42:21.460Z,16.50
2019-01-29T23:47:42.094Z,19.77
2019-01-29T23:53:04.462Z,22.90
2019-01-29T23:58:25.134Z,18.93
